sensor_id;sensor_type;location;lat;lon;timestamp;pressure;altitude;pressure_sealevel;temperature;humidity
41254;BME280;26987;59.928;30.306;2023-04-26T00:00:44;100329.25;;;13.33;40.31
41254;BME280;26987;59.928;30.306;2023-04-26T00:03:14;100329.72;;;13.30;40.71
41254;BME280;26987;59.928;30.306;2023-04-26T00:05:41;100327.13;;;13.23;40.60
41254;BME280;26987;59.928;30.306;2023-04-26T00:08:09;100330.06;;;13.21;40.68
41254;BME280;26987;59.928;30.306;2023-04-26T00:10:37;100332.16;;;13.19;40.68
41254;BME280;26987;59.928;30.306;2023-04-26T00:13:06;100318.00;;;13.12;40.92
41254;BME280;26987;59.928;30.306;2023-04-26T00:15:33;100328.28;;;13.15;41.12
41254;BME280;26987;59.928;30.306;2023-04-26T00:18:02;100309.34;;;12.98;41.11
41254;BME280;26987;59.928;30.306;2023-04-26T00:20:31;100329.81;;;13.11;41.10
41254;BME280;26987;59.928;30.306;2023-04-26T00:22:59;100325.13;;;13.06;41.25
41254;BME280;26987;59.928;30.306;2023-04-26T00:25:28;100326.91;;;13.01;41.21
41254;BME280;26987;59.928;30.306;2023-04-26T00:27:56;100321.84;;;12.92;41.43
41254;BME280;26987;59.928;30.306;2023-04-26T00:30:23;100316.34;;;12.87;41.71
41254;BME280;26987;59.928;30.306;2023-04-26T00:32:51;100320.56;;;12.83;41.86
41254;BME280;26987;59.928;30.306;2023-04-26T00:35:20;100322.66;;;12.81;41.96
41254;BME280;26987;59.928;30.306;2023-04-26T00:37:49;100319.97;;;12.81;42.21
41254;BME280;26987;59.928;30.306;2023-04-26T00:40:17;100310.28;;;12.80;42.18
41254;BME280;26987;59.928;30.306;2023-04-26T00:42:46;100298.19;;;12.70;41.59
41254;BME280;26987;59.928;30.306;2023-04-26T00:45:14;100310.03;;;12.81;42.26
41254;BME280;26987;59.928;30.306;2023-04-26T00:47:42;100303.81;;;12.81;42.20
41254;BME280;26987;59.928;30.306;2023-04-26T00:50:10;100308.16;;;12.82;41.94
41254;BME280;26987;59.928;30.306;2023-04-26T00:52:38;100321.38;;;12.83;42.13
41254;BME280;26987;59.928;30.306;2023-04-26T00:55:08;100298.34;;;12.76;41.60
41254;BME280;26987;59.928;30.306;2023-04-26T00:57:38;100313.06;;;12.85;41.75
41254;BME280;26987;59.928;30.306;2023-04-26T01:00:06;100306.88;;;12.84;41.98
41254;BME280;26987;59.928;30.306;2023-04-26T01:02:35;100309.81;;;12.83;41.96
41254;BME280;26987;59.928;30.306;2023-04-26T01:05:04;100306.88;;;12.84;42.32
41254;BME280;26987;59.928;30.306;2023-04-26T01:07:33;100313.06;;;12.85;42.34
41254;BME280;26987;59.928;30.306;2023-04-26T01:10:02;100307.13;;;12.83;41.98
41254;BME280;26987;59.928;30.306;2023-04-26T01:12:32;100307.13;;;12.83;41.97
41254;BME280;26987;59.928;30.306;2023-04-26T01:15:02;100300.91;;;12.82;42.36
41254;BME280;26987;59.928;30.306;2023-04-26T01:17:31;100300.31;;;12.80;42.41
41254;BME280;26987;59.928;30.306;2023-04-26T01:19:59;100291.66;;;12.78;42.37
41254;BME280;26987;59.928;30.306;2023-04-26T01:22:26;100292.97;;;12.76;42.37
41254;BME280;26987;59.928;30.306;2023-04-26T01:24:57;100300.44;;;12.73;42.24
41254;BME280;26987;59.928;30.306;2023-04-26T01:27:26;100294.69;;;12.70;42.54
41254;BME280;26987;59.928;30.306;2023-04-26T01:29:54;100283.69;;;12.59;42.61
41254;BME280;26987;59.928;30.306;2023-04-26T01:32:23;100293.19;;;12.62;42.64
41254;BME280;26987;59.928;30.306;2023-04-26T01:34:51;100259.66;;;12.34;43.09
41254;BME280;26987;59.928;30.306;2023-04-26T01:37:19;100293.50;;;12.54;43.28
41254;BME280;26987;59.928;30.306;2023-04-26T01:39:46;100299.78;;;12.47;43.39
41254;BME280;26987;59.928;30.306;2023-04-26T01:42:16;100297.78;;;12.43;43.18
41254;BME280;26987;59.928;30.306;2023-04-26T01:44:43;100300.94;;;12.40;43.35
41254;BME280;26987;59.928;30.306;2023-04-26T01:47:11;100297.91;;;12.36;43.97
41254;BME280;26987;59.928;30.306;2023-04-26T01:49:39;100300.00;;;12.34;44.16
41254;BME280;26987;59.928;30.306;2023-04-26T01:52:07;100289.69;;;12.31;43.97
41254;BME280;26987;59.928;30.306;2023-04-26T01:54:35;100294.72;;;12.27;43.87
41254;BME280;26987;59.928;30.306;2023-04-26T01:57:03;100280.09;;;12.23;44.19
41254;BME280;26987;59.928;30.306;2023-04-26T01:59:32;100280.91;;;12.23;43.86
41254;BME280;26987;59.928;30.306;2023-04-26T02:02:00;100278.91;;;12.19;44.14
41254;BME280;26987;59.928;30.306;2023-04-26T02:04:28;100270.97;;;12.12;44.27
41254;BME280;26987;59.928;30.306;2023-04-26T02:06:56;100277.97;;;12.13;44.57
41254;BME280;26987;59.928;30.306;2023-04-26T02:09:24;100262.59;;;12.02;44.83
41254;BME280;26987;59.928;30.306;2023-04-26T02:11:52;100273.34;;;12.02;44.90
41254;BME280;26987;59.928;30.306;2023-04-26T02:14:20;100276.94;;;11.95;45.08
41254;BME280;26987;59.928;30.306;2023-04-26T02:16:50;100278.13;;;11.99;45.34
41254;BME280;26987;59.928;30.306;2023-04-26T02:19:18;100277.28;;;11.99;45.24
41254;BME280;26987;59.928;30.306;2023-04-26T02:21:50;100282.88;;;11.97;45.14
41254;BME280;26987;59.928;30.306;2023-04-26T02:24:18;100272.25;;;11.91;45.73
41254;BME280;26987;59.928;30.306;2023-04-26T02:26:47;100279.03;;;11.93;45.61
41254;BME280;26987;59.928;30.306;2023-04-26T02:29:15;100281.25;;;11.96;45.77
41254;BME280;26987;59.928;30.306;2023-04-26T02:31:43;100276.72;;;11.97;45.86
41254;BME280;26987;59.928;30.306;2023-04-26T02:34:12;100275.44;;;11.99;45.80
41254;BME280;26987;59.928;30.306;2023-04-26T02:36:40;100276.72;;;11.97;45.88
41254;BME280;26987;59.928;30.306;2023-04-26T02:39:08;100258.66;;;11.85;45.82
41254;BME280;26987;59.928;30.306;2023-04-26T02:41:37;100277.16;;;11.94;45.84
41254;BME280;26987;59.928;30.306;2023-04-26T02:44:05;100260.31;;;11.86;46.27
41254;BME280;26987;59.928;30.306;2023-04-26T02:46:35;100216.50;;;11.55;45.82
41254;BME280;26987;59.928;30.306;2023-04-26T02:49:02;100253.84;;;11.76;46.21
41254;BME280;26987;59.928;30.306;2023-04-26T02:51:33;100276.34;;;11.93;46.37
41254;BME280;26987;59.928;30.306;2023-04-26T02:54:00;100268.88;;;11.95;46.47
41254;BME280;26987;59.928;30.306;2023-04-26T02:56:30;100271.56;;;11.95;46.47
41254;BME280;26987;59.928;30.306;2023-04-26T02:58:58;100247.78;;;11.80;45.94
41254;BME280;26987;59.928;30.306;2023-04-26T03:01:26;100274.97;;;12.03;46.25
41254;BME280;26987;59.928;30.306;2023-04-26T03:03:55;100279.59;;;12.14;45.93
41254;BME280;26987;59.928;30.306;2023-04-26T03:06:23;100277.88;;;12.20;45.62
41254;BME280;26987;59.928;30.306;2023-04-26T03:08:52;100273.34;;;12.32;45.16
41254;BME280;26987;59.928;30.306;2023-04-26T03:11:20;100275.13;;;12.51;44.87
41254;BME280;26987;59.928;30.306;2023-04-26T03:13:48;100268.03;;;12.68;44.60
41254;BME280;26987;59.928;30.306;2023-04-26T03:16:17;100261.84;;;12.92;44.22
41254;BME280;26987;59.928;30.306;2023-04-26T03:18:46;100263.13;;;13.25;43.26
41254;BME280;26987;59.928;30.306;2023-04-26T03:21:14;100267.84;;;13.59;42.79
41254;BME280;26987;59.928;30.306;2023-04-26T03:23:42;100272.31;;;13.94;41.57
41254;BME280;26987;59.928;30.306;2023-04-26T03:26:11;100273.16;;;14.41;40.58
41254;BME280;26987;59.928;30.306;2023-04-26T03:28:40;100270.84;;;15.01;39.67
41254;BME280;26987;59.928;30.306;2023-04-26T03:31:08;100264.38;;;15.92;37.83
41254;BME280;26987;59.928;30.306;2023-04-26T03:33:37;100265.25;;;16.96;35.95
41254;BME280;26987;59.928;30.306;2023-04-26T03:36:05;100268.72;;;17.24;34.98
41254;BME280;26987;59.928;30.306;2023-04-26T03:38:33;100268.34;;;17.10;35.09
41254;BME280;26987;59.928;30.306;2023-04-26T03:41:02;100249.47;;;16.77;35.50
41254;BME280;26987;59.928;30.306;2023-04-26T03:43:31;100262.88;;;17.05;35.14
41254;BME280;26987;59.928;30.306;2023-04-26T03:46:00;100240.50;;;17.20;34.61
41254;BME280;26987;59.928;30.306;2023-04-26T03:48:28;100245.69;;;17.27;34.71
41254;BME280;26987;59.928;30.306;2023-04-26T03:50:56;100253.09;;;17.52;34.24
41254;BME280;26987;59.928;30.306;2023-04-26T03:53:24;100253.53;;;18.13;33.16
41254;BME280;26987;59.928;30.306;2023-04-26T03:55:52;100245.16;;;18.20;32.91
41254;BME280;26987;59.928;30.306;2023-04-26T03:58:20;100250.03;;;18.55;32.74
41254;BME280;26987;59.928;30.306;2023-04-26T04:00:49;100254.66;;;19.62;31.06
41254;BME280;26987;59.928;30.306;2023-04-26T04:03:17;100252.97;;;19.71;30.60
41254;BME280;26987;59.928;30.306;2023-04-26T04:05:46;100250.56;;;20.10;29.99
41254;BME280;26987;59.928;30.306;2023-04-26T04:08:14;100249.56;;;20.65;29.29
41254;BME280;26987;59.928;30.306;2023-04-26T04:10:42;100243.44;;;21.33;28.29
41254;BME280;26987;59.928;30.306;2023-04-26T04:13:10;100250.72;;;22.00;27.50
41254;BME280;26987;59.928;30.306;2023-04-26T04:15:38;100252.09;;;22.50;26.75
41254;BME280;26987;59.928;30.306;2023-04-26T04:18:07;100252.72;;;23.09;26.38
41254;BME280;26987;59.928;30.306;2023-04-26T04:20:35;100250.06;;;23.60;25.40
41254;BME280;26987;59.928;30.306;2023-04-26T04:23:04;100257.84;;;24.03;24.72
41254;BME280;26987;59.928;30.306;2023-04-26T04:25:34;100252.75;;;24.34;24.23
41254;BME280;26987;59.928;30.306;2023-04-26T04:28:05;100249.22;;;24.65;24.11
41254;BME280;26987;59.928;30.306;2023-04-26T04:30:34;100250.28;;;24.87;23.78
41254;BME280;26987;59.928;30.306;2023-04-26T04:33:02;100245.59;;;25.19;23.19
41254;BME280;26987;59.928;30.306;2023-04-26T04:35:33;100245.53;;;25.60;22.80
41254;BME280;26987;59.928;30.306;2023-04-26T04:38:03;100235.06;;;25.79;22.70
41254;BME280;26987;59.928;30.306;2023-04-26T04:40:32;100248.94;;;26.01;22.50
41254;BME280;26987;59.928;30.306;2023-04-26T04:43:00;100232.94;;;26.29;21.95
41254;BME280;26987;59.928;30.306;2023-04-26T04:45:30;100243.22;;;26.50;22.00
41254;BME280;26987;59.928;30.306;2023-04-26T04:47:59;100246.41;;;26.70;21.25
41254;BME280;26987;59.928;30.306;2023-04-26T04:50:27;100243.72;;;26.91;21.20
41254;BME280;26987;59.928;30.306;2023-04-26T04:52:57;100248.91;;;27.23;20.99
41254;BME280;26987;59.928;30.306;2023-04-26T04:55:25;100243.97;;;27.38;20.56
41254;BME280;26987;59.928;30.306;2023-04-26T04:57:53;100246.72;;;27.38;20.82
41254;BME280;26987;59.928;30.306;2023-04-26T05:00:22;100250.91;;;27.65;20.67
41254;BME280;26987;59.928;30.306;2023-04-26T05:02:59;100249.00;;;27.66;20.55
41254;BME280;26987;59.928;30.306;2023-04-26T05:05:28;100247.00;;;27.45;20.83
41254;BME280;26987;59.928;30.306;2023-04-26T05:07:57;100216.84;;;26.58;21.32
41254;BME280;26987;59.928;30.306;2023-04-26T05:10:26;100231.63;;;26.36;21.89
41254;BME280;26987;59.928;30.306;2023-04-26T05:12:54;100241.97;;;26.30;22.21
41254;BME280;26987;59.928;30.306;2023-04-26T05:15:22;100245.00;;;26.94;21.36
41254;BME280;26987;59.928;30.306;2023-04-26T05:17:50;100248.22;;;27.35;20.90
41254;BME280;26987;59.928;30.306;2023-04-26T05:20:21;100245.38;;;28.08;20.52
41254;BME280;26987;59.928;30.306;2023-04-26T05:22:50;100251.38;;;28.31;19.87
41254;BME280;26987;59.928;30.306;2023-04-26T05:25:20;100206.38;;;28.18;19.97
41254;BME280;26987;59.928;30.306;2023-04-26T05:27:50;100250.34;;;28.49;19.84
41254;BME280;26987;59.928;30.306;2023-04-26T05:30:26;100236.72;;;28.77;19.79
41254;BME280;26987;59.928;30.306;2023-04-26T05:33:23;100238.00;;;28.92;19.43
41254;BME280;26987;59.928;30.306;2023-04-26T05:36:12;100239.19;;;29.04;19.42
41254;BME280;26987;59.928;30.306;2023-04-26T05:38:39;100246.09;;;28.51;20.07
41254;BME280;26987;59.928;30.306;2023-04-26T05:41:09;100225.00;;;28.21;20.02
41254;BME280;26987;59.928;30.306;2023-04-26T05:43:38;100241.31;;;27.93;20.29
41254;BME280;26987;59.928;30.306;2023-04-26T05:46:06;100240.22;;;28.06;20.43
41254;BME280;26987;59.928;30.306;2023-04-26T05:48:34;100242.47;;;27.70;20.50
41254;BME280;26987;59.928;30.306;2023-04-26T05:51:02;100243.38;;;27.53;20.65
41254;BME280;26987;59.928;30.306;2023-04-26T05:53:32;100240.28;;;27.55;20.77
41254;BME280;26987;59.928;30.306;2023-04-26T05:56:03;100235.06;;;27.83;20.74
41254;BME280;26987;59.928;30.306;2023-04-26T05:58:34;100229.97;;;27.73;20.48
41254;BME280;26987;59.928;30.306;2023-04-26T06:01:03;100236.06;;;27.36;20.95
41254;BME280;26987;59.928;30.306;2023-04-26T06:03:31;100220.97;;;27.42;20.88
41254;BME280;26987;59.928;30.306;2023-04-26T06:05:59;100230.63;;;27.91;20.37
41254;BME280;26987;59.928;30.306;2023-04-26T06:08:27;100227.84;;;28.13;20.72
41254;BME280;26987;59.928;30.306;2023-04-26T06:10:55;100235.28;;;27.78;20.61
41254;BME280;26987;59.928;30.306;2023-04-26T06:13:24;100217.16;;;28.32;19.98
41254;BME280;26987;59.928;30.306;2023-04-26T06:15:53;100230.75;;;28.63;20.04
41254;BME280;26987;59.928;30.306;2023-04-26T06:18:21;100234.22;;;28.97;19.59
41254;BME280;26987;59.928;30.306;2023-04-26T06:20:50;100227.69;;;29.14;19.65
41254;BME280;26987;59.928;30.306;2023-04-26T06:23:18;100226.53;;;29.15;19.38
41254;BME280;26987;59.928;30.306;2023-04-26T06:25:46;100234.41;;;29.42;18.75
41254;BME280;26987;59.928;30.306;2023-04-26T06:28:13;100209.84;;;28.87;19.29
41254;BME280;26987;59.928;30.306;2023-04-26T06:30:42;100223.66;;;28.99;19.33
41254;BME280;26987;59.928;30.306;2023-04-26T06:33:11;100218.09;;;29.24;19.26
41254;BME280;26987;59.928;30.306;2023-04-26T06:35:39;100221.78;;;29.28;19.54
41254;BME280;26987;59.928;30.306;2023-04-26T06:38:08;100216.59;;;29.27;18.89
41254;BME280;26987;59.928;30.306;2023-04-26T06:40:38;100218.03;;;29.49;18.85
41254;BME280;26987;59.928;30.306;2023-04-26T06:43:05;100216.50;;;28.73;19.35
41254;BME280;26987;59.928;30.306;2023-04-26T06:45:55;100209.13;;;28.40;19.92
41254;BME280;26987;59.928;30.306;2023-04-26T06:48:25;100197.91;;;28.24;19.93
41254;BME280;26987;59.928;30.306;2023-04-26T06:50:53;100213.94;;;27.75;20.18
41254;BME280;26987;59.928;30.306;2023-04-26T06:53:21;100222.16;;;27.32;20.51
41254;BME280;26987;59.928;30.306;2023-04-26T06:55:49;100216.44;;;26.77;21.25
41254;BME280;26987;59.928;30.306;2023-04-26T06:58:18;100211.28;;;26.19;21.89
41254;BME280;26987;59.928;30.306;2023-04-26T07:00:46;100214.38;;;25.82;22.26
41254;BME280;26987;59.928;30.306;2023-04-26T07:03:14;100210.78;;;25.55;22.97
41254;BME280;26987;59.928;30.306;2023-04-26T07:05:43;100198.69;;;25.47;22.33
41254;BME280;26987;59.928;30.306;2023-04-26T07:08:11;100210.47;;;25.48;22.03
41254;BME280;26987;59.928;30.306;2023-04-26T07:10:40;100217.34;;;25.10;22.96
41254;BME280;26987;59.928;30.306;2023-04-26T07:13:08;100217.91;;;24.89;23.25
41254;BME280;26987;59.928;30.306;2023-04-26T07:15:36;100216.44;;;24.51;23.43
41254;BME280;26987;59.928;30.306;2023-04-26T07:18:04;100216.91;;;24.44;24.38
41254;BME280;26987;59.928;30.306;2023-04-26T07:20:32;100210.19;;;24.27;24.29
41254;BME280;26987;59.928;30.306;2023-04-26T07:23:01;100190.44;;;23.93;23.96
41254;BME280;26987;59.928;30.306;2023-04-26T07:25:29;100214.41;;;23.88;24.29
41254;BME280;26987;59.928;30.306;2023-04-26T07:27:57;100209.81;;;23.60;24.26
41254;BME280;26987;59.928;30.306;2023-04-26T07:30:25;100212.13;;;23.67;24.32
41254;BME280;26987;59.928;30.306;2023-04-26T07:32:52;100177.75;;;23.38;24.44
41254;BME280;26987;59.928;30.306;2023-04-26T07:35:20;100209.47;;;23.25;24.60
41254;BME280;26987;59.928;30.306;2023-04-26T07:37:48;100211.94;;;22.98;25.16
41254;BME280;26987;59.928;30.306;2023-04-26T07:40:18;100198.94;;;22.76;24.84
41254;BME280;26987;59.928;30.306;2023-04-26T07:42:48;100199.56;;;22.59;25.33
41254;BME280;26987;59.928;30.306;2023-04-26T07:45:15;100204.47;;;22.42;25.71
41254;BME280;26987;59.928;30.306;2023-04-26T07:47:43;100201.25;;;22.21;26.53
41254;BME280;26987;59.928;30.306;2023-04-26T07:50:11;100201.88;;;22.18;26.55
41254;BME280;26987;59.928;30.306;2023-04-26T07:52:39;100188.59;;;22.11;26.34
41254;BME280;26987;59.928;30.306;2023-04-26T07:55:08;100203.81;;;21.98;26.40
41254;BME280;26987;59.928;30.306;2023-04-26T07:57:38;100196.13;;;21.62;26.92
41254;BME280;26987;59.928;30.306;2023-04-26T08:00:07;100198.38;;;21.60;27.06
41254;BME280;26987;59.928;30.306;2023-04-26T08:02:38;100199.97;;;21.61;27.49
41254;BME280;26987;59.928;30.306;2023-04-26T08:05:09;100201.97;;;21.74;26.79
41254;BME280;26987;59.928;30.306;2023-04-26T08:07:37;100203.16;;;21.87;26.78
41254;BME280;26987;59.928;30.306;2023-04-26T08:10:06;100200.34;;;21.92;26.09
41254;BME280;26987;59.928;30.306;2023-04-26T08:12:35;100187.81;;;21.91;26.22
41254;BME280;26987;59.928;30.306;2023-04-26T08:15:05;100201.75;;;21.90;26.23
41254;BME280;26987;59.928;30.306;2023-04-26T08:17:33;100201.41;;;21.77;26.20
41254;BME280;26987;59.928;30.306;2023-04-26T08:20:01;100198.38;;;21.79;26.32
41254;BME280;26987;59.928;30.306;2023-04-26T08:22:31;100204.78;;;21.88;26.01
41254;BME280;26987;59.928;30.306;2023-04-26T08:24:59;100190.53;;;21.72;26.02
41254;BME280;26987;59.928;30.306;2023-04-26T08:27:26;100199.59;;;21.67;26.23
41254;BME280;26987;59.928;30.306;2023-04-26T08:29:54;100187.50;;;21.54;26.44
41254;BME280;26987;59.928;30.306;2023-04-26T08:32:23;100174.69;;;21.55;26.33
41254;BME280;26987;59.928;30.306;2023-04-26T08:34:51;100184.72;;;21.60;26.50
41254;BME280;26987;59.928;30.306;2023-04-26T08:37:19;100186.25;;;21.66;26.43
41254;BME280;26987;59.928;30.306;2023-04-26T08:39:47;100186.84;;;21.63;26.08
41254;BME280;26987;59.928;30.306;2023-04-26T08:42:16;100176.91;;;21.53;26.18
41254;BME280;26987;59.928;30.306;2023-04-26T08:44:44;100186.94;;;21.58;26.32
41254;BME280;26987;59.928;30.306;2023-04-26T08:47:14;100186.06;;;21.43;26.44
41254;BME280;26987;59.928;30.306;2023-04-26T08:49:45;100132.81;;;21.07;26.79
41254;BME280;26987;59.928;30.306;2023-04-26T08:52:15;100184.50;;;21.37;26.94
41254;BME280;26987;59.928;30.306;2023-04-26T08:54:49;100182.84;;;21.36;27.08
41254;BME280;26987;59.928;30.306;2023-04-26T08:57:17;100176.59;;;21.35;27.15
41254;BME280;26987;59.928;30.306;2023-04-26T08:59:46;100179.34;;;21.54;27.09
41254;BME280;26987;59.928;30.306;2023-04-26T09:02:17;100182.50;;;21.62;26.33
41254;BME280;26987;59.928;30.306;2023-04-26T09:04:47;100176.16;;;21.66;26.61
41254;BME280;26987;59.928;30.306;2023-04-26T09:07:19;100171.53;;;21.67;26.46
41254;BME280;26987;59.928;30.306;2023-04-26T09:09:48;100172.56;;;21.71;26.48
41254;BME280;26987;59.928;30.306;2023-04-26T09:12:18;100166.72;;;21.78;26.61
41254;BME280;26987;59.928;30.306;2023-04-26T09:14:46;100141.00;;;21.65;26.39
41254;BME280;26987;59.928;30.306;2023-04-26T09:17:24;100164.78;;;21.98;26.17
41254;BME280;26987;59.928;30.306;2023-04-26T09:19:54;100143.44;;;21.86;25.93
41254;BME280;26987;59.928;30.306;2023-04-26T09:22:34;100156.53;;;22.03;25.77
41254;BME280;26987;59.928;30.306;2023-04-26T09:25:03;100168.88;;;22.14;25.59
41254;BME280;26987;59.928;30.306;2023-04-26T09:27:33;100103.31;;;21.86;25.33
41254;BME280;26987;59.928;30.306;2023-04-26T09:30:05;100156.09;;;22.29;25.22
41254;BME280;26987;59.928;30.306;2023-04-26T09:32:44;100155.16;;;22.34;25.26
41254;BME280;26987;59.928;30.306;2023-04-26T09:35:25;100143.44;;;22.33;25.39
41254;BME280;26987;59.928;30.306;2023-04-26T09:37:55;100143.22;;;22.15;25.35
41254;BME280;26987;59.928;30.306;2023-04-26T09:40:25;100138.75;;;22.05;25.81
41254;BME280;26987;59.928;30.306;2023-04-26T09:43:01;100142.81;;;22.22;25.55
41254;BME280;26987;59.928;30.306;2023-04-26T09:45:30;100110.03;;;21.94;25.26
41254;BME280;26987;59.928;30.306;2023-04-26T09:48:15;100146.06;;;22.38;25.31
41254;BME280;26987;59.928;30.306;2023-04-26T09:50:45;100141.22;;;22.35;25.09
41254;BME280;26987;59.928;30.306;2023-04-26T09:53:27;100136.28;;;22.51;25.26
41254;BME280;26987;59.928;30.306;2023-04-26T09:55:57;100133.13;;;22.30;25.07
41254;BME280;26987;59.928;30.306;2023-04-26T09:58:32;100134.63;;;22.22;25.10
41254;BME280;26987;59.928;30.306;2023-04-26T10:01:00;100120.47;;;22.20;24.61
41254;BME280;26987;59.928;30.306;2023-04-26T10:03:30;100111.06;;;22.26;24.68
41254;BME280;26987;59.928;30.306;2023-04-26T10:06:02;100122.84;;;22.41;24.37
41254;BME280;26987;59.928;30.306;2023-04-26T10:08:30;100100.47;;;22.39;24.19
41254;BME280;26987;59.928;30.306;2023-04-26T10:10:59;100078.84;;;22.28;24.29
41254;BME280;26987;59.928;30.306;2023-04-26T10:13:28;100117.38;;;22.55;24.39
41254;BME280;26987;59.928;30.306;2023-04-26T10:15:58;100116.56;;;22.54;23.85
41254;BME280;26987;59.928;30.306;2023-04-26T10:18:26;100118.00;;;22.66;24.10
41254;BME280;26987;59.928;30.306;2023-04-26T10:20:57;100125.78;;;22.87;24.21
41254;BME280;26987;59.928;30.306;2023-04-26T10:23:28;100130.84;;;22.65;23.98
41254;BME280;26987;59.928;30.306;2023-04-26T10:25:56;100111.38;;;22.25;24.51
41254;BME280;26987;59.928;30.306;2023-04-26T10:28:53;100114.22;;;22.34;24.82
41254;BME280;26987;59.928;30.306;2023-04-26T10:31:22;100124.72;;;22.12;25.17
41254;BME280;26987;59.928;30.306;2023-04-26T10:34:17;100127.84;;;22.20;25.34
41254;BME280;26987;59.928;30.306;2023-04-26T10:37:06;100127.47;;;21.93;24.68
41254;BME280;26987;59.928;30.306;2023-04-26T10:39:36;100126.69;;;21.54;25.12
41254;BME280;26987;59.928;30.306;2023-04-26T10:42:18;100098.88;;;21.38;25.26
41254;BME280;26987;59.928;30.306;2023-04-26T10:44:52;100129.97;;;21.37;25.49
41254;BME280;26987;59.928;30.306;2023-04-26T10:47:30;100127.97;;;21.42;25.63
41254;BME280;26987;59.928;30.306;2023-04-26T10:50:04;100129.88;;;21.23;25.41
41254;BME280;26987;59.928;30.306;2023-04-26T10:52:32;100103.34;;;20.90;25.96
41254;BME280;26987;59.928;30.306;2023-04-26T10:55:02;100131.72;;;21.08;25.75
41254;BME280;26987;59.928;30.306;2023-04-26T10:57:48;100135.41;;;21.17;25.52
41254;BME280;26987;59.928;30.306;2023-04-26T11:00:24;100134.31;;;21.19;25.49
41254;BME280;26987;59.928;30.306;2023-04-26T11:02:55;100139.81;;;21.13;25.58
41254;BME280;26987;59.928;30.306;2023-04-26T11:05:52;100132.91;;;21.21;25.54
41254;BME280;26987;59.928;30.306;2023-04-26T11:08:24;100142.47;;;20.99;25.76
41254;BME280;26987;59.928;30.306;2023-04-26T11:11:05;100126.16;;;20.94;25.73
41254;BME280;26987;59.928;30.306;2023-04-26T11:13:36;100132.19;;;20.66;26.20
41254;BME280;26987;59.928;30.306;2023-04-26T11:16:05;100137.09;;;20.40;26.25
41254;BME280;26987;59.928;30.306;2023-04-26T11:18:35;100145.31;;;20.35;25.64
41254;BME280;26987;59.928;30.306;2023-04-26T11:21:04;100111.34;;;20.02;25.78
41254;BME280;26987;59.928;30.306;2023-04-26T11:23:33;100070.59;;;19.62;25.98
41254;BME280;26987;59.928;30.306;2023-04-26T11:26:04;100147.81;;;20.01;26.20
41254;BME280;26987;59.928;30.306;2023-04-26T11:28:34;100169.47;;;20.12;27.42
41254;BME280;26987;59.928;30.306;2023-04-26T11:31:03;100185.25;;;20.15;27.42
41254;BME280;26987;59.928;30.306;2023-04-26T11:33:32;100175.50;;;20.38;27.82
41254;BME280;26987;59.928;30.306;2023-04-26T11:36:00;100159.13;;;20.68;26.97
41254;BME280;26987;59.928;30.306;2023-04-26T11:38:29;100152.00;;;20.72;26.86
41254;BME280;26987;59.928;30.306;2023-04-26T11:40:58;100132.72;;;20.69;26.91
41254;BME280;26987;59.928;30.306;2023-04-26T11:43:33;100147.03;;;20.79;26.97
41254;BME280;26987;59.928;30.306;2023-04-26T11:46:02;100098.84;;;20.26;26.72
41254;BME280;26987;59.928;30.306;2023-04-26T11:48:31;100129.00;;;20.59;26.34
41254;BME280;26987;59.928;30.306;2023-04-26T11:51:02;100140.25;;;21.01;25.89
41254;BME280;26987;59.928;30.306;2023-04-26T11:53:36;100130.75;;;21.18;25.59
41254;BME280;26987;59.928;30.306;2023-04-26T11:56:13;100138.44;;;21.54;25.50
41254;BME280;26987;59.928;30.306;2023-04-26T11:58:45;100136.88;;;21.48;25.42
41254;BME280;26987;59.928;30.306;2023-04-26T12:01:19;100133.94;;;21.64;25.91
41254;BME280;26987;59.928;30.306;2023-04-26T12:03:49;100135.63;;;21.79;25.50
41254;BME280;26987;59.928;30.306;2023-04-26T12:06:18;100126.97;;;21.91;25.68
41254;BME280;26987;59.928;30.306;2023-04-26T12:08:49;100128.53;;;21.97;25.72
41254;BME280;26987;59.928;30.306;2023-04-26T12:11:18;100128.00;;;21.95;25.76
41254;BME280;26987;59.928;30.306;2023-04-26T12:13:47;100133.47;;;21.95;24.99
41254;BME280;26987;59.928;30.306;2023-04-26T12:16:15;100128.06;;;21.90;25.08
41254;BME280;26987;59.928;30.306;2023-04-26T12:18:49;100127.00;;;22.05;24.77
41254;BME280;26987;59.928;30.306;2023-04-26T12:21:17;100129.88;;;22.14;24.44
41254;BME280;26987;59.928;30.306;2023-04-26T12:23:45;100122.38;;;22.05;24.06
41254;BME280;26987;59.928;30.306;2023-04-26T12:26:14;100132.03;;;21.98;24.04
41254;BME280;26987;59.928;30.306;2023-04-26T12:28:42;100091.47;;;21.58;24.21
41254;BME280;26987;59.928;30.306;2023-04-26T12:31:11;100133.41;;;21.81;24.06
41254;BME280;26987;59.928;30.306;2023-04-26T12:33:39;100125.81;;;21.78;24.14
41254;BME280;26987;59.928;30.306;2023-04-26T12:36:08;100118.94;;;21.61;24.21
41254;BME280;26987;59.928;30.306;2023-04-26T12:38:36;100120.09;;;21.41;24.90
41254;BME280;26987;59.928;30.306;2023-04-26T12:41:04;100111.91;;;21.22;25.23
41254;BME280;26987;59.928;30.306;2023-04-26T12:43:32;100119.94;;;21.13;25.60
41254;BME280;26987;59.928;30.306;2023-04-26T12:46:00;100124.47;;;20.98;25.77
41254;BME280;26987;59.928;30.306;2023-04-26T12:48:29;100126.75;;;20.91;26.18
41254;BME280;26987;59.928;30.306;2023-04-26T12:50:57;100127.66;;;20.81;26.58
41254;BME280;26987;59.928;30.306;2023-04-26T12:53:25;100122.09;;;20.67;26.65